VTUU/UBP METAR and TAF weather

Enter ICAO airport designator
Station Type Date Time Source
VTUU METAR 2020/04/05 07:00 UTC NOAA

VTUU 050700Z VRB03KT 9000 FEW030 37/21 Q1010 NOSIG


Station Type Date Time Source
VTUU Decoded METAR 2020/04/05 07:00 UTC NOAA

Ubon Ratchathani, Thailand (VTUU) 15-15N 104-52E 127M
Apr 05, 2020 - 03:00 AM EDT / 2020.04.05 0700 UTC
Wind: Variable at 3 MPH (3 KT):0
Visibility: 5 mile(s):0
Sky conditions: mostly clear
Temperature: 98 F (37 C)
Heat index: 104.2 F (40.1 C):1
Dew Point: 69 F (21 C)
Relative Humidity: 39%
Pressure (altimeter): 29.83 in. Hg (1010 hPa)
ob: VTUU 050700Z VRB03KT 9000 FEW030 37/21 Q1010 NOSIG
cycle: 7

Station Type Date Time Source
VTUU TAF 2020/04/05 06:37 UTC NOAA

TAF VTUU 050500Z 0506/0606 16005KT 9000 FEW030

Example: see airport list